Sialkot, Pakistan
Current Conditions -  °F | °C
As of 8:30 PM on Thursday 23 Oct 2014 (Local Time) from VIAR Reporting Station
Haze Haze  
Wind Chill: 73°   Ceiling: Unl
Heat Index: 73°   Visibility: 1.8mi
Dew Point: 66°   Wind: 0mph
Humidity: 78%   Direction: NA
Pressure: 29.91"   Gusts: NA
Location:  32.52°N, 74.55°E
Report Text: VIAR 231530Z 00000KT 3000 BR NSC 23/19 Q1013
Loading
Personal Weather Stations






























Interactive Weather Map
Tropical Storm Tracking
New forecast layout! Learn more

10-Day Weather Forecast

Advertisements
Track Severe Weather on mobile